createdAt,value
2019-01-18T00:00:04.012Z,3.73
2019-01-18T00:02:44.970Z,2.23
2019-01-18T00:05:25.763Z,5.03
2019-01-18T00:08:09.881Z,4.07
2019-01-18T00:10:39.026Z,4.93
2019-01-18T00:13:27.169Z,2.70
2019-01-18T00:16:15.385Z,4.07
2019-01-18T00:18:44.606Z,3.60
2019-01-18T00:21:32.818Z,2.37
2019-01-18T00:24:17.070Z,4.70
2019-01-18T00:26:46.205Z,2.70
2019-01-18T00:29:34.402Z,2.47
2019-01-18T00:32:22.597Z,5.30
2019-01-18T00:35:08.516Z,4.37
2019-01-18T00:37:49.914Z,3.03
2019-01-18T00:40:30.732Z,3.70
2019-01-18T00:43:11.708Z,3.30
2019-01-18T00:45:52.913Z,4.07
2019-01-18T00:48:21.907Z,5.07
2019-01-18T00:51:10.111Z,5.43
2019-01-18T00:53:58.281Z,3.17
2019-01-18T00:56:39.649Z,6.03
2019-01-18T00:59:21.079Z,3.87
2019-01-18T01:02:02.010Z,5.00
2019-01-18T01:04:41.247Z,3.87
2019-01-18T01:07:22.475Z,6.33
2019-01-18T01:10:02.916Z,4.13
2019-01-18T01:12:43.786Z,6.97
2019-01-18T01:15:24.636Z,8.53
2019-01-18T01:18:08.809Z,4.10
2019-01-18T01:20:37.944Z,6.07
2019-01-18T01:23:07.110Z,3.00
2019-01-18T01:25:55.801Z,4.87
2019-01-18T01:28:44.069Z,3.20
2019-01-18T01:31:25.207Z,2.40
2019-01-18T01:34:06.182Z,4.77
2019-01-18T01:36:46.991Z,5.93
2019-01-18T01:39:27.794Z,4.57
2019-01-18T01:42:08.277Z,8.90
2019-01-18T01:44:48.739Z,4.90
2019-01-18T01:47:30.012Z,3.10
2019-01-18T01:50:11.202Z,3.53
2019-01-18T01:55:34.055Z,4.87
2019-01-18T02:01:06.088Z,4.27
2019-01-18T02:03:51.263Z,5.33
2019-01-18T02:06:32.223Z,4.10
2019-01-18T02:12:27.024Z,4.23
2019-01-18T02:15:16.168Z,9.10
2019-01-18T02:18:02.351Z,6.60
2019-01-18T02:20:43.412Z,10.13
2019-01-18T02:23:27.043Z,5.20
2019-01-18T02:26:31.088Z,5.40
2019-01-18T02:28:59.253Z,7.97
2019-01-18T02:34:22.116Z,7.83
2019-01-18T02:37:07.180Z,13.43
2019-01-18T02:39:37.389Z,7.77
2019-01-18T02:42:25.536Z,13.70
2019-01-18T02:45:05.676Z,8.17
2019-01-18T02:47:47.498Z,16.77
2019-01-18T02:50:28.876Z,10.00
2019-01-18T02:53:10.107Z,9.73
2019-01-18T02:55:50.775Z,7.57
2019-01-18T02:58:31.340Z,10.57
2019-01-18T03:01:12.294Z,8.30
2019-01-18T03:06:35.646Z,7.13
2019-01-18T03:09:16.774Z,10.27
2019-01-18T03:11:57.795Z,7.73
2019-01-18T03:14:38.811Z,11.73
2019-01-18T03:17:19.345Z,8.83
2019-01-18T03:20:00.298Z,6.60
2019-01-18T03:22:41.028Z,9.07
2019-01-18T03:25:21.928Z,12.47
2019-01-18T03:28:02.898Z,7.80
2019-01-18T03:30:44.049Z,6.67
2019-01-18T03:33:26.102Z,7.00
2019-01-18T03:36:06.729Z,13.33
2019-01-18T03:38:47.988Z,11.00
2019-01-18T03:44:10.586Z,8.37
2019-01-18T03:46:51.145Z,7.90
2019-01-18T03:49:31.979Z,8.30
2019-01-18T03:52:14.948Z,7.70
2019-01-18T03:58:12.029Z,8.60
2019-01-18T04:00:56.329Z,8.37
2019-01-18T04:03:25.463Z,8.57
2019-01-18T04:05:54.490Z,7.43
2019-01-18T04:08:42.665Z,6.83
2019-01-18T04:11:27.055Z,10.47
2019-01-18T04:14:08.018Z,6.10
2019-01-18T04:16:48.805Z,7.90
2019-01-18T04:19:17.702Z,8.23
2019-01-18T04:22:05.899Z,8.17
2019-01-18T04:24:49.470Z,12.20
2019-01-18T04:27:18.480Z,7.43
2019-01-18T04:30:08.154Z,8.33
2019-01-18T04:32:56.269Z,10.00
2019-01-18T04:35:44.505Z,7.30
2019-01-18T04:41:17.094Z,8.67
2019-01-18T04:43:58.143Z,10.47
2019-01-18T04:46:27.207Z,7.80
2019-01-18T04:49:15.486Z,9.83
2019-01-18T04:51:56.893Z,10.30
2019-01-18T04:54:38.325Z,14.13
2019-01-18T04:57:19.685Z,7.73
2019-01-18T04:59:48.935Z,5.20
2019-01-18T05:02:37.081Z,8.27
2019-01-18T05:05:25.199Z,9.43
2019-01-18T05:08:13.400Z,9.30
2019-01-18T05:10:42.504Z,10.50
2019-01-18T05:13:30.740Z,9.20
2019-01-18T05:19:01.132Z,11.90
2019-01-18T05:21:41.928Z,11.57
2019-01-18T05:24:22.951Z,8.00
2019-01-18T05:27:03.713Z,8.63
2019-01-18T05:29:44.514Z,8.07
2019-01-18T05:32:26.381Z,8.67
2019-01-18T05:35:07.207Z,10.83
2019-01-18T05:37:48.166Z,13.50
2019-01-18T05:40:28.817Z,7.50
2019-01-18T05:43:09.273Z,10.13
2019-01-18T05:45:49.863Z,10.33
2019-01-18T05:48:30.531Z,12.97
2019-01-18T05:51:11.433Z,10.00
2019-01-18T05:53:40.645Z,7.50
2019-01-18T05:56:28.839Z,9.20
2019-01-18T05:59:17.152Z,9.23
2019-01-18T06:02:01.347Z,9.83
2019-01-18T06:07:29.067Z,11.40
2019-01-18T06:10:10.170Z,11.27
2019-01-18T06:12:51.264Z,16.03
2019-01-18T06:15:31.881Z,9.03
2019-01-18T06:18:15.655Z,13.37
2019-01-18T06:23:39.085Z,13.80
2019-01-18T06:26:08.556Z,9.67
2019-01-18T06:28:57.234Z,9.97
2019-01-18T06:31:45.925Z,9.30
2019-01-18T06:34:29.776Z,11.27
2019-01-18T06:37:11.040Z,7.27
2019-01-18T06:39:40.193Z,10.40
2019-01-18T06:42:28.504Z,14.03
2019-01-18T06:45:17.462Z,11.40
2019-01-18T06:50:46.588Z,7.13
2019-01-18T06:53:27.595Z,10.83
2019-01-18T06:58:59.060Z,10.60
2019-01-18T07:01:47.147Z,11.07
2019-01-18T07:04:27.624Z,10.53
2019-01-18T07:07:08.462Z,9.97
2019-01-18T07:09:49.497Z,11.83
2019-01-18T07:12:30.182Z,14.60
2019-01-18T07:15:11.101Z,13.97
2019-01-18T07:17:40.260Z,25.47
2019-01-18T07:20:28.518Z,42.73
2019-01-18T07:23:16.848Z,16.70
2019-01-18T07:25:57.819Z,15.33
2019-01-18T07:31:27.614Z,13.10
2019-01-18T07:34:08.698Z,7.93
2019-01-18T07:36:50.003Z,11.87
2019-01-18T07:39:30.998Z,12.50
2019-01-18T07:42:14.522Z,14.80
2019-01-18T07:47:40.392Z,17.93
2019-01-18T07:50:21.240Z,16.63
2019-01-18T07:53:01.682Z,15.23
2019-01-18T07:55:42.909Z,15.30
2019-01-18T07:58:23.734Z,18.83
2019-01-18T08:03:52.888Z,16.63
2019-01-18T08:09:12.176Z,17.47
2019-01-18T08:12:00.351Z,15.10
2019-01-18T08:14:41.400Z,10.90
2019-01-18T08:17:10.593Z,17.33
2019-01-18T08:19:58.875Z,14.97
2019-01-18T08:22:47.154Z,17.30
2019-01-18T08:25:28.622Z,13.27
2019-01-18T08:28:09.329Z,22.63
2019-01-18T08:30:50.416Z,16.90
2019-01-18T08:36:19.341Z,32.23
2019-01-18T08:38:59.879Z,22.43
2019-01-18T08:41:40.410Z,17.43
2019-01-18T08:44:20.885Z,20.97
2019-01-18T08:47:02.239Z,25.63
2019-01-18T08:49:46.471Z,20.33
2019-01-18T08:55:18.861Z,19.70
2019-01-18T09:00:33.499Z,20.37
2019-01-18T09:03:21.797Z,12.90
2019-01-18T09:06:11.045Z,17.97
2019-01-18T09:08:51.479Z,17.03
2019-01-18T09:11:32.721Z,12.17
2019-01-18T09:17:03.190Z,16.30
2019-01-18T09:19:46.620Z,20.47
2019-01-18T09:22:16.396Z,31.70
2019-01-18T09:25:05.681Z,17.63
2019-01-18T09:27:48.325Z,20.93
2019-01-18T09:33:51.574Z,16.93
2019-01-18T09:36:32.468Z,20.50
2019-01-18T09:39:16.260Z,24.17
2019-01-18T09:41:57.053Z,10.93
2019-01-18T09:44:38.064Z,19.03
2019-01-18T09:47:07.490Z,14.10
2019-01-18T09:50:05.918Z,12.53
2019-01-18T09:52:54.168Z,15.00
2019-01-18T09:55:38.512Z,13.77
2019-01-18T10:01:02.955Z,13.80
2019-01-18T10:03:44.759Z,19.70
2019-01-18T10:06:45.316Z,12.23
2019-01-18T10:09:27.068Z,12.43
2019-01-18T10:12:11.842Z,9.17
2019-01-18T10:14:54.212Z,12.87
2019-01-18T10:17:41.315Z,12.87
2019-01-18T10:20:22.982Z,13.67
2019-01-18T10:23:06.746Z,10.03
2019-01-18T10:25:47.956Z,8.40
2019-01-18T10:28:31.566Z,9.70
2019-01-18T10:31:12.926Z,8.37
2019-01-18T10:33:42.697Z,14.37
2019-01-18T10:36:32.069Z,8.53
2019-01-18T10:42:03.895Z,7.17
2019-01-18T10:44:52.662Z,8.90
2019-01-18T10:47:38.316Z,8.30
2019-01-18T10:50:10.552Z,5.83
2019-01-18T10:52:58.817Z,9.63
2019-01-18T10:55:47.125Z,9.73
2019-01-18T10:58:31.377Z,8.90
2019-01-18T11:04:03.310Z,9.17
2019-01-18T11:09:35.779Z,6.33
2019-01-18T11:15:05.243Z,7.13
2019-01-18T11:17:46.887Z,8.80
2019-01-18T11:20:27.993Z,7.27
2019-01-18T11:23:09.449Z,5.27
2019-01-18T11:25:40.910Z,10.63
2019-01-18T11:28:29.111Z,11.50
2019-01-18T11:31:13.718Z,10.20
2019-01-18T11:36:46.373Z,13.10
2019-01-18T11:39:26.876Z,8.20
2019-01-18T11:42:07.480Z,14.57
2019-01-18T11:44:48.378Z,11.80
2019-01-18T11:47:29.750Z,8.17
2019-01-18T11:53:04.811Z,5.50
2019-01-18T11:55:53.088Z,6.80
2019-01-18T11:58:22.286Z,10.63
2019-01-18T12:01:10.637Z,7.77
2019-01-18T12:03:58.955Z,5.67
2019-01-18T12:09:31.736Z,4.13
2019-01-18T12:12:00.757Z,4.37
2019-01-18T12:14:29.889Z,5.40
2019-01-18T12:17:18.067Z,4.93
2019-01-18T12:20:08.371Z,9.77
2019-01-18T12:25:35.986Z,11.47
2019-01-18T12:28:06.250Z,12.30
2019-01-18T12:30:47.142Z,11.37
2019-01-18T12:33:28.711Z,9.77
2019-01-18T12:36:10.245Z,8.50
2019-01-18T12:41:37.851Z,7.93
2019-01-18T12:44:18.806Z,8.60
2019-01-18T12:46:59.416Z,7.47
2019-01-18T12:55:10.774Z,10.20
2019-01-18T12:57:51.802Z,9.00
2019-01-18T13:00:32.974Z,10.67
2019-01-18T13:03:02.218Z,6.30
2019-01-18T13:06:02.329Z,5.13
2019-01-18T13:12:00.006Z,8.03
2019-01-18T13:14:41.198Z,7.70
2019-01-18T13:17:21.703Z,10.10
2019-01-18T13:20:02.867Z,12.97
2019-01-18T13:22:44.022Z,12.03
2019-01-18T13:28:08.842Z,10.50
2019-01-18T13:30:49.376Z,12.73
2019-01-18T13:41:44.634Z,8.33
2019-01-18T13:44:32.754Z,7.90
2019-01-18T13:47:18.228Z,8.50
2019-01-18T13:49:56.370Z,8.53
2019-01-18T13:52:37.536Z,8.63
2019-01-18T13:55:09.670Z,9.00
2019-01-18T13:57:57.965Z,9.40
2019-01-18T14:00:46.260Z,6.87
2019-01-18T14:03:27.575Z,6.70
2019-01-18T14:08:50.399Z,8.03
2019-01-18T14:11:31.762Z,6.90
2019-01-18T14:14:14.404Z,7.80
2019-01-18T14:16:55.747Z,12.70
2019-01-18T14:20:08.192Z,6.20
2019-01-18T14:22:27.934Z,7.00
2019-01-18T14:25:09.390Z,8.60
2019-01-18T14:27:51.255Z,11.60
2019-01-18T14:30:42.023Z,9.00
2019-01-18T14:33:27.395Z,10.67
2019-01-18T14:41:55.882Z,16.37
2019-01-18T14:44:36.719Z,10.07
2019-01-18T14:47:17.231Z,12.93
2019-01-18T14:49:58.238Z,10.40
2019-01-18T14:52:39.754Z,13.23
2019-01-18T14:58:04.956Z,13.77
2019-01-18T15:00:47.291Z,13.37
2019-01-18T15:03:28.606Z,13.77
2019-01-18T15:06:09.756Z,12.17
2019-01-18T15:08:50.626Z,8.13
2019-01-18T15:11:31.931Z,9.83
2019-01-18T15:14:20.657Z,18.43
2019-01-18T15:17:08.967Z,10.03
2019-01-18T15:19:52.474Z,11.17
2019-01-18T15:22:33.257Z,11.90
2019-01-18T15:30:34.822Z,7.70
2019-01-18T15:33:23.100Z,9.30
2019-01-18T15:41:56.330Z,12.20
2019-01-18T15:44:38.444Z,14.30
2019-01-18T15:47:19.353Z,14.27
2019-01-18T15:50:00.789Z,16.93
2019-01-18T15:52:29.720Z,11.63
2019-01-18T15:55:17.998Z,11.13
2019-01-18T15:58:06.937Z,10.90
2019-01-18T16:00:55.438Z,8.97
2019-01-18T16:03:43.783Z,10.50
2019-01-18T16:06:26.304Z,9.10
2019-01-18T16:09:08.524Z,16.20
2019-01-18T16:14:34.549Z,11.97
2019-01-18T16:17:15.223Z,11.60
2019-01-18T16:19:45.196Z,11.67
2019-01-18T16:22:48.944Z,15.10
2019-01-18T16:25:08.868Z,15.67
2019-01-18T16:31:11.319Z,16.97
2019-01-18T16:33:52.079Z,9.83
2019-01-18T16:36:32.879Z,12.60
2019-01-18T16:39:16.011Z,11.00
2019-01-18T16:41:58.410Z,15.23
2019-01-18T16:44:40.255Z,15.37
2019-01-18T16:47:22.578Z,13.00
2019-01-18T16:50:03.963Z,9.63
2019-01-18T16:52:44.695Z,10.23
2019-01-18T16:55:28.787Z,9.70
2019-01-18T17:00:47.256Z,13.57
2019-01-18T17:03:35.510Z,7.43
2019-01-18T17:06:16.698Z,8.77
2019-01-18T17:08:46.879Z,9.23
2019-01-18T17:11:22.905Z,11.67
2019-01-18T17:17:26.242Z,12.90
2019-01-18T17:19:55.315Z,9.07
2019-01-18T17:22:43.660Z,11.00
2019-01-18T17:25:13.166Z,10.63
2019-01-18T17:28:03.211Z,13.50
2019-01-18T17:30:52.486Z,13.77
2019-01-18T17:33:43.676Z,8.63
2019-01-18T17:36:24.209Z,12.93
2019-01-18T17:39:08.692Z,14.23
2019-01-18T17:41:51.079Z,15.40
2019-01-18T17:44:32.771Z,14.40
2019-01-18T17:47:24.575Z,15.17
2019-01-18T17:50:05.646Z,15.60
2019-01-18T17:53:13.313Z,12.47
2019-01-18T17:56:20.749Z,11.50
2019-01-18T17:59:03.155Z,12.90
2019-01-18T18:01:44.095Z,12.17
2019-01-18T18:07:16.126Z,15.57
2019-01-18T18:10:03.193Z,13.37
2019-01-18T18:12:43.917Z,13.17
2019-01-18T18:15:26.151Z,18.23
2019-01-18T18:18:07.372Z,14.77
2019-01-18T18:24:06.156Z,15.00
2019-01-18T18:26:47.124Z,14.93
2019-01-18T18:29:29.331Z,15.00
2019-01-18T18:32:38.610Z,16.93
2019-01-18T18:35:19.947Z,16.43
2019-01-18T18:38:01.242Z,18.50
2019-01-18T18:40:46.704Z,16.33
2019-01-18T18:43:54.211Z,21.07
2019-01-18T18:46:38.437Z,14.10
2019-01-18T18:52:04.563Z,17.20
2019-01-18T18:54:48.073Z,14.63
2019-01-18T18:57:39.388Z,15.27
2019-01-18T19:00:46.843Z,16.23
2019-01-18T19:06:56.049Z,18.97
2019-01-18T19:09:36.989Z,12.77
2019-01-18T19:12:22.858Z,16.03
2019-01-18T19:17:55.755Z,17.43
2019-01-18T19:21:03.311Z,15.17
2019-01-18T19:23:44.356Z,12.83
2019-01-18T19:26:27.951Z,13.53
2019-01-18T19:29:09.234Z,14.50
2019-01-18T19:37:46.992Z,14.67
2019-01-18T19:40:28.235Z,15.37
2019-01-18T19:46:42.245Z,14.70
2019-01-18T19:52:09.547Z,16.83
2019-01-18T19:54:46.528Z,12.53
2019-01-18T19:57:54.047Z,16.33
2019-01-18T20:01:01.490Z,20.10
2019-01-18T20:03:42.318Z,13.30
2019-01-18T20:06:26.954Z,14.37
2019-01-18T20:09:10.838Z,13.40
2019-01-18T20:14:42.555Z,20.67
2019-01-18T20:20:12.237Z,20.10
2019-01-18T20:22:53.244Z,14.97
2019-01-18T20:26:01.321Z,20.57
2019-01-18T20:32:04.014Z,15.63
2019-01-18T20:34:45.145Z,17.80
2019-01-18T20:37:27.201Z,18.33
2019-01-18T20:40:34.790Z,24.47
2019-01-18T20:43:16.101Z,16.20
2019-01-18T20:48:51.533Z,14.05
2019-01-18T21:03:36.983Z,18.30
2019-01-18T21:06:34.047Z,13.50
2019-01-18T21:09:27.408Z,20.30
2019-01-18T21:12:08.884Z,21.33
2019-01-18T21:14:49.560Z,17.10
2019-01-18T21:17:57.039Z,15.83
2019-01-18T21:21:06.836Z,17.77
2019-01-18T21:23:47.885Z,15.40
2019-01-18T21:26:29.311Z,12.95
2019-01-18T21:32:33.316Z,19.17
2019-01-18T21:35:40.815Z,17.07
2019-01-18T21:38:43.067Z,20.77
2019-01-18T21:44:05.164Z,26.57
2019-01-18T21:46:46.682Z,21.27
2019-01-18T21:49:27.793Z,23.47
2019-01-18T21:54:56.912Z,17.20
2019-01-18T21:57:41.404Z,22.80
2019-01-18T22:00:22.824Z,22.97
2019-01-18T22:06:26.231Z,29.33
2019-01-18T22:09:08.742Z,26.53
2019-01-18T22:11:50.057Z,26.45
2019-01-18T22:14:46.652Z,29.10
2019-01-18T22:17:43.546Z,30.77
2019-01-18T22:20:45.022Z,23.22
2019-01-18T22:23:35.709Z,24.00
2019-01-18T22:26:21.129Z,22.33
2019-01-18T22:29:02.523Z,26.27
2019-01-18T22:32:14.806Z,20.00
2019-01-18T22:35:00.179Z,24.17
2019-01-18T22:37:44.355Z,21.93
2019-01-18T22:40:27.929Z,27.10
2019-01-18T22:43:12.523Z,27.97
2019-01-18T22:45:56.897Z,34.15
2019-01-18T22:48:38.919Z,27.65
2019-01-18T22:52:09.705Z,23.40
2019-01-18T22:54:56.463Z,23.37
2019-01-18T22:57:43.919Z,21.80
2019-01-18T23:00:56.114Z,22.35
2019-01-18T23:03:38.011Z,25.92
2019-01-18T23:06:19.172Z,21.65
2019-01-18T23:09:02.284Z,21.33
2019-01-18T23:11:43.365Z,25.17
2019-01-18T23:14:24.272Z,19.05
2019-01-18T23:17:05.584Z,20.00
2019-01-18T23:19:47.395Z,21.50
2019-01-18T23:22:55.257Z,21.70
2019-01-18T23:25:36.635Z,20.37
2019-01-18T23:28:17.335Z,17.67
2019-01-18T23:30:58.319Z,24.63
2019-01-18T23:34:05.817Z,23.20
2019-01-18T23:36:56.866Z,21.33
2019-01-18T23:40:04.495Z,16.65
2019-01-18T23:42:52.213Z,20.55
2019-01-18T23:45:31.527Z,27.98
2019-01-18T23:48:12.195Z,22.15
2019-01-18T23:51:19.682Z,15.83
2019-01-18T23:54:00.920Z,24.45
2019-01-18T23:56:42.571Z,23.65
2019-01-18T23:59:23.557Z,17.17
